createdAt,value
2019-04-23T00:00:56.370Z,48.10
2019-04-23T00:03:41.595Z,48.40
2019-04-23T00:06:24.905Z,48.20
2019-04-23T00:09:31.204Z,48.80
2019-04-23T00:11:59.845Z,49.40
2019-04-23T00:14:54.798Z,49.10
2019-04-23T00:17:37.124Z,48.60
2019-04-23T00:20:20.167Z,48.60
2019-04-23T00:26:03.957Z,48.90
2019-04-23T00:28:50.464Z,49.00
2019-04-23T00:31:45.468Z,49.50
2019-04-23T00:34:21.201Z,49.60
2019-04-23T00:37:13.016Z,49.10
2019-04-23T00:39:52.851Z,49.50
2019-04-23T00:42:41.634Z,50.00
2019-04-23T00:45:34.989Z,49.00
2019-04-23T00:48:22.280Z,48.90
2019-04-23T00:51:02.265Z,49.10
2019-04-23T00:53:51.417Z,48.90
2019-04-23T00:56:52.650Z,49.30
2019-04-23T00:59:26.989Z,50.00
2019-04-23T01:02:08.795Z,50.00
2019-04-23T01:05:04.802Z,49.60
2019-04-23T01:07:44.558Z,50.00
2019-04-23T01:10:34.558Z,50.00
2019-04-23T01:13:31.753Z,51.00
2019-04-23T01:16:13.191Z,50.50
2019-04-23T01:19:18.930Z,50.30
2019-04-23T01:21:28.815Z,50.60
2019-04-23T01:24:20.264Z,50.40
2019-04-23T01:30:13.973Z,50.80
2019-04-23T01:33:03.014Z,51.70
2019-04-23T01:36:04.454Z,52.20
2019-04-23T01:38:39.156Z,52.50
2019-04-23T01:41:29.000Z,52.20
2019-04-23T01:44:14.338Z,52.30
2019-04-23T01:47:01.129Z,52.70
2019-04-23T01:49:54.313Z,52.90
2019-04-23T01:52:44.184Z,53.40
2019-04-23T01:55:27.951Z,53.00
2019-04-23T01:58:27.190Z,53.30
2019-04-23T02:00:52.827Z,53.70
2019-04-23T02:03:42.701Z,53.70
2019-04-23T02:06:25.238Z,53.60
2019-04-23T02:09:14.759Z,53.80
2019-04-23T02:12:07.463Z,54.90
2019-04-23T02:14:49.898Z,54.60
2019-04-23T02:17:41.217Z,55.10
2019-04-23T02:23:32.781Z,56.30
2019-04-23T02:26:15.268Z,56.60
2019-04-23T02:29:13.295Z,56.30
2019-04-23T02:34:51.271Z,58.20
2019-04-23T02:37:51.625Z,58.70
2019-04-23T02:48:45.888Z,62.20
2019-04-23T02:51:42.399Z,64.00
2019-04-23T03:00:05.644Z,65.30
2019-04-23T03:05:21.653Z,68.10
2019-04-23T03:08:08.334Z,69.00
2019-04-23T03:11:07.724Z,69.00
2019-04-23T03:16:41.734Z,72.00
2019-04-23T03:19:29.608Z,72.50
2019-04-23T03:22:25.640Z,73.30
2019-04-23T03:27:50.178Z,77.20
2019-04-23T03:36:13.856Z,77.50
2019-04-23T03:41:54.365Z,80.90
2019-04-23T03:47:32.208Z,83.80
2019-04-23T03:50:15.778Z,84.50
2019-04-23T03:52:58.120Z,87.30
2019-04-23T03:55:58.671Z,85.10
2019-04-23T03:58:39.085Z,87.00
2019-04-23T04:06:59.403Z,90.10
2019-04-23T04:09:47.598Z,90.60
2019-04-23T04:12:42.996Z,90.60
2019-04-23T04:15:33.556Z,90.80
2019-04-23T04:23:42.733Z,91.00
2019-04-23T04:29:20.991Z,90.10
2019-04-23T04:32:00.678Z,87.90
2019-04-23T04:54:17.014Z,88.70
2019-04-23T04:57:13.092Z,89.10
2019-04-23T05:02:53.188Z,87.80
2019-04-23T05:05:51.067Z,87.70
2019-04-23T05:08:19.515Z,87.40
2019-04-23T05:11:21.525Z,87.00
2019-04-23T05:14:03.898Z,88.30
2019-04-23T05:19:29.396Z,87.40
2019-04-23T05:22:06.672Z,88.10
2019-04-23T05:25:05.558Z,85.90
2019-04-23T05:27:46.315Z,85.30
2019-04-23T05:30:33.109Z,87.10
2019-04-23T05:33:18.847Z,85.10
2019-04-23T05:36:18.336Z,85.60
2019-04-23T05:39:11.713Z,85.30
2019-04-23T05:41:36.909Z,83.90
2019-04-23T05:47:19.144Z,82.80
2019-04-23T05:50:00.728Z,81.90
2019-04-23T05:52:49.136Z,82.90
2019-04-23T05:55:26.438Z,81.30
2019-04-23T05:58:26.731Z,80.80
2019-04-23T06:01:38.041Z,79.70
2019-04-23T06:06:54.130Z,77.70
2019-04-23T06:09:34.102Z,78.10
2019-04-23T06:12:18.830Z,78.40
2019-04-23T06:15:09.721Z,77.10
2019-04-23T06:17:55.911Z,75.30
2019-04-23T06:20:48.796Z,75.20
2019-04-23T06:26:26.941Z,74.90
2019-04-23T06:29:08.180Z,74.40
2019-04-23T06:31:48.787Z,72.90
2019-04-23T06:34:38.151Z,71.90
2019-04-23T06:37:38.536Z,71.80
2019-04-23T06:40:13.887Z,72.70
2019-04-23T06:43:06.504Z,69.60
2019-04-23T06:45:45.628Z,71.90
2019-04-23T06:48:38.473Z,69.70
2019-04-23T06:51:27.507Z,70.20
2019-04-23T06:54:12.400Z,68.30
2019-04-23T06:59:47.152Z,68.10
2019-04-23T07:02:35.974Z,68.30
2019-04-23T07:05:39.240Z,66.50
2019-04-23T07:08:13.557Z,66.30
2019-04-23T07:10:57.497Z,66.80
2019-04-23T07:13:54.635Z,65.10
2019-04-23T07:16:27.761Z,66.10
2019-04-23T07:19:27.262Z,65.00
2019-04-23T07:22:06.673Z,65.90
2019-04-23T07:24:49.219Z,65.10
2019-04-23T07:27:31.777Z,65.70
2019-04-23T07:30:31.467Z,64.30
2019-04-23T07:33:11.200Z,63.50
2019-04-23T07:35:51.681Z,63.00
2019-04-23T07:38:54.740Z,63.50
2019-04-23T07:44:36.849Z,62.20
2019-04-23T07:47:25.152Z,61.90
2019-04-23T07:53:11.447Z,61.40
2019-04-23T07:58:29.889Z,62.40
2019-04-23T08:01:12.542Z,61.20
2019-04-23T08:04:07.336Z,61.50
2019-04-23T08:06:55.947Z,60.70
2019-04-23T08:09:47.868Z,60.20
2019-04-23T08:15:16.424Z,59.50
2019-04-23T08:18:03.220Z,59.70
2019-04-23T08:20:52.486Z,59.80
2019-04-23T08:23:50.663Z,58.30
2019-04-23T08:26:49.598Z,59.50
2019-04-23T08:29:27.571Z,59.50
2019-04-23T08:35:19.733Z,59.00
2019-04-23T08:38:16.088Z,58.80
2019-04-23T08:41:00.761Z,59.30
2019-04-23T08:43:52.980Z,58.50
2019-04-23T08:46:52.048Z,57.60
2019-04-23T08:49:43.251Z,57.10
2019-04-23T08:52:25.626Z,57.60
2019-04-23T08:55:08.680Z,56.60
2019-04-23T08:57:47.113Z,56.50
2019-04-23T09:06:16.160Z,55.70
2019-04-23T09:09:04.577Z,55.90
2019-04-23T09:11:55.967Z,56.30
2019-04-23T09:14:44.452Z,55.50
2019-04-23T09:22:54.962Z,54.40
2019-04-23T09:28:46.361Z,54.20
2019-04-23T09:34:12.910Z,53.70
2019-04-23T09:37:15.225Z,54.00
2019-04-23T09:39:59.112Z,54.10
2019-04-23T09:42:46.310Z,52.90
2019-04-23T09:45:41.183Z,54.00
2019-04-23T09:48:26.618Z,53.60
2019-04-23T09:51:18.112Z,52.30
2019-04-23T09:54:02.984Z,51.90
2019-04-23T09:56:57.091Z,51.40
2019-04-23T09:59:39.454Z,50.60
2019-04-23T10:02:20.065Z,51.30
2019-04-23T10:04:56.902Z,52.00
2019-04-23T10:07:44.503Z,50.80
2019-04-23T10:10:18.590Z,51.00
2019-04-23T10:13:04.298Z,51.90
2019-04-23T10:15:51.513Z,50.70
2019-04-23T10:18:37.372Z,50.70
2019-04-23T10:21:23.849Z,50.80
2019-04-23T10:24:09.679Z,51.80
2019-04-23T10:26:55.802Z,50.50
2019-04-23T10:29:41.728Z,51.30
2019-04-23T10:32:29.664Z,49.70
2019-04-23T10:35:25.659Z,50.40
2019-04-23T10:38:07.956Z,51.40
2019-04-23T10:40:50.226Z,49.60
2019-04-23T10:43:39.323Z,50.20
2019-04-23T10:46:49.230Z,49.40
2019-04-23T10:49:53.297Z,48.20
2019-04-23T10:52:31.668Z,49.90
2019-04-23T10:55:27.908Z,49.90
2019-04-23T10:58:17.410Z,49.10
2019-04-23T11:00:59.740Z,49.00
2019-04-23T11:04:09.798Z,48.70
2019-04-23T11:06:42.698Z,48.50
2019-04-23T11:09:34.676Z,49.60
2019-04-23T11:12:16.191Z,49.00
2019-04-23T11:15:09.259Z,48.20
2019-04-23T11:17:47.740Z,48.80
2019-04-23T11:20:36.827Z,48.50
2019-04-23T11:23:22.517Z,47.20
2019-04-23T11:26:17.427Z,47.60
2019-04-23T11:28:50.340Z,46.90
2019-04-23T11:32:06.953Z,47.20
2019-04-23T11:37:23.184Z,48.10
2019-04-23T11:40:11.126Z,47.40
2019-04-23T11:42:58.030Z,48.70
2019-04-23T11:48:46.423Z,47.40
2019-04-23T11:54:05.764Z,48.70
2019-04-23T11:59:39.270Z,47.90
2019-04-23T12:02:32.839Z,48.00
2019-04-23T12:05:41.225Z,47.90
2019-04-23T12:11:51.980Z,47.60
2019-04-23T12:14:32.776Z,47.80
2019-04-23T12:18:02.873Z,48.50
2019-04-23T12:22:54.462Z,48.00
2019-04-23T12:25:32.434Z,47.80
2019-04-23T12:28:27.706Z,47.20
2019-04-23T12:31:26.101Z,47.20
2019-04-23T12:33:57.403Z,47.30
2019-04-23T12:36:44.080Z,47.30
2019-04-23T12:39:32.958Z,47.80
2019-04-23T12:42:38.377Z,46.40
2019-04-23T12:47:58.504Z,46.50
2019-04-23T12:56:08.977Z,46.20
2019-04-23T12:58:51.295Z,46.70
2019-04-23T13:01:51.023Z,47.20
2019-04-23T13:04:38.080Z,47.00
2019-04-23T13:07:27.226Z,46.50
2019-04-23T13:10:09.129Z,46.90
2019-04-23T13:15:39.952Z,45.00
2019-04-23T13:18:31.180Z,43.70
2019-04-23T13:21:41.451Z,43.20
2019-04-23T13:24:18.755Z,41.50
2019-04-23T13:27:10.775Z,39.80
2019-04-23T13:30:16.987Z,37.50
2019-04-23T13:38:32.112Z,31.60
2019-04-23T13:44:00.169Z,29.40
2019-04-23T13:46:35.879Z,29.30
2019-04-23T13:49:26.327Z,29.80
2019-04-23T13:52:42.803Z,30.90
2019-04-23T14:03:30.679Z,37.30
2019-04-23T14:09:01.919Z,38.40
2019-04-23T14:11:40.423Z,39.90
2019-04-23T14:20:13.751Z,41.70
2019-04-23T14:23:07.895Z,40.80
2019-04-23T14:25:59.639Z,41.70
2019-04-23T14:28:36.929Z,40.80
2019-04-23T14:31:17.444Z,41.80
2019-04-23T14:34:12.858Z,41.40
2019-04-23T14:36:59.249Z,43.40
2019-04-23T14:39:48.548Z,43.50
2019-04-23T14:42:47.607Z,43.20
2019-04-23T14:45:32.725Z,42.40
2019-04-23T14:48:11.893Z,42.20
2019-04-23T14:50:58.297Z,41.60
2019-04-23T14:53:39.788Z,41.70
2019-04-23T14:56:30.192Z,40.90
2019-04-23T14:59:21.501Z,40.80
2019-04-23T15:02:05.208Z,40.90
2019-04-23T15:07:39.793Z,41.70
2019-04-23T15:13:15.900Z,43.10
2019-04-23T15:16:07.989Z,43.10
2019-04-23T15:27:58.735Z,43.20
2019-04-23T15:29:50.050Z,43.10
2019-04-23T15:35:43.992Z,41.40
2019-04-23T15:41:07.450Z,39.40
2019-04-23T15:43:57.080Z,38.80
2019-04-23T15:46:39.526Z,37.80
2019-04-23T15:49:26.909Z,39.30
2019-04-23T15:52:10.717Z,39.00
2019-04-23T15:55:02.018Z,40.00
2019-04-23T16:00:30.816Z,40.70
2019-04-23T16:02:53.872Z,40.90
2019-04-23T16:05:39.339Z,39.30
2019-04-23T16:09:04.715Z,38.70
2019-04-23T16:17:18.742Z,40.50
2019-04-23T16:20:15.773Z,40.20
2019-04-23T16:22:44.602Z,41.00
2019-04-23T16:25:36.311Z,40.90
2019-04-23T16:28:35.115Z,40.20
2019-04-23T16:31:20.727Z,40.40
2019-04-23T16:34:09.530Z,39.20
2019-04-23T16:36:48.505Z,39.00
2019-04-23T16:39:31.665Z,38.30
2019-04-23T16:42:23.625Z,39.00
2019-04-23T16:45:15.991Z,38.10
2019-04-23T16:48:06.503Z,38.80
2019-04-23T16:51:06.790Z,39.00
2019-04-23T17:02:03.438Z,43.40
2019-04-23T17:04:41.666Z,45.00
2019-04-23T17:07:20.182Z,45.00
2019-04-23T17:10:28.030Z,45.90
2019-04-23T17:13:05.058Z,46.50
2019-04-23T17:21:23.344Z,48.00
2019-04-23T17:27:01.998Z,48.80
2019-04-23T17:29:41.823Z,49.40
2019-04-23T17:32:27.936Z,49.40
2019-04-23T17:35:23.842Z,49.60
2019-04-23T17:38:15.037Z,50.00
2019-04-23T17:41:12.916Z,49.70
2019-04-23T17:44:14.227Z,50.90
2019-04-23T17:46:50.430Z,51.10
2019-04-23T17:49:41.640Z,51.00
2019-04-23T17:52:26.274Z,51.30
2019-04-23T17:58:01.149Z,51.60
2019-04-23T18:00:51.099Z,51.70
2019-04-23T18:03:41.408Z,52.20
2019-04-23T18:09:15.237Z,52.80
2019-04-23T18:12:01.060Z,52.80
2019-04-23T18:14:40.061Z,52.80
2019-04-23T18:20:23.311Z,53.30
2019-04-23T18:23:14.880Z,53.80
2019-04-23T18:26:02.089Z,54.10
2019-04-23T18:28:49.897Z,53.70
2019-04-23T18:31:31.779Z,54.40
2019-04-23T18:34:45.413Z,54.50
2019-04-23T18:37:25.794Z,54.70
2019-04-23T18:40:00.427Z,55.00
2019-04-23T18:42:54.204Z,55.40
2019-04-23T18:45:46.790Z,55.60
2019-04-23T18:51:07.756Z,55.50
2019-04-23T18:53:52.691Z,56.00
2019-04-23T18:57:01.995Z,56.10
2019-04-23T18:59:46.440Z,56.10
2019-04-23T19:02:43.660Z,56.50
2019-04-23T19:05:45.604Z,56.40
2019-04-23T19:14:47.810Z,57.50
2019-04-23T19:23:28.668Z,57.90
2019-04-23T19:25:51.855Z,58.50
2019-04-23T19:37:23.233Z,60.10
2019-04-23T19:40:07.187Z,60.10
2019-04-23T19:42:55.406Z,60.40
2019-04-23T19:45:49.703Z,60.60
2019-04-23T19:48:44.512Z,60.90
2019-04-23T19:51:16.930Z,61.40
2019-04-23T19:54:16.734Z,61.50
2019-04-23T19:56:58.205Z,61.70
2019-04-23T20:05:05.592Z,63.10
2019-04-23T20:08:08.589Z,64.60
2019-04-23T20:10:47.780Z,64.60
2019-04-23T20:13:47.165Z,65.20
2019-04-23T20:16:31.055Z,65.40
2019-04-23T20:19:21.205Z,65.70
2019-04-23T20:25:10.217Z,67.50
2019-04-23T20:27:42.422Z,67.70
2019-04-23T20:36:29.952Z,69.90
2019-04-23T20:39:14.307Z,71.20
2019-04-23T20:42:08.981Z,71.10
2019-04-23T20:47:24.492Z,72.10
2019-04-23T20:50:10.852Z,71.70
2019-04-23T20:52:59.995Z,73.00
2019-04-23T20:56:01.475Z,72.40
2019-04-23T20:58:54.832Z,73.00
2019-04-23T21:01:55.586Z,74.30
2019-04-23T21:04:45.522Z,74.50
2019-04-23T21:07:31.578Z,74.50
2019-04-23T21:18:37.377Z,75.80
2019-04-23T21:21:20.358Z,75.70
2019-04-23T21:24:00.015Z,75.40
2019-04-23T21:26:59.540Z,75.90
2019-04-23T21:29:53.645Z,78.40
2019-04-23T21:38:39.867Z,78.60
2019-04-23T21:41:41.821Z,80.10
2019-04-23T21:44:10.525Z,78.70
2019-04-23T21:46:51.354Z,79.10
2019-04-23T21:55:09.792Z,78.90
2019-04-23T21:58:09.860Z,78.90
2019-04-23T22:00:58.643Z,79.60
2019-04-23T22:03:45.707Z,78.60
2019-04-23T22:06:22.253Z,78.60
2019-04-23T22:09:22.404Z,79.20
2019-04-23T22:14:50.649Z,77.90
2019-04-23T22:20:21.398Z,78.60
2019-04-23T22:25:56.885Z,78.00
2019-04-23T22:31:29.219Z,78.00
2019-04-23T22:37:06.164Z,80.70
2019-04-23T22:39:54.127Z,79.30
2019-04-23T22:42:54.963Z,79.50
2019-04-23T22:45:16.171Z,80.10
2019-04-23T22:48:06.882Z,80.00
2019-04-23T22:51:12.173Z,79.90
2019-04-23T22:53:45.511Z,79.60
2019-04-23T22:56:24.905Z,79.10
2019-04-23T22:59:26.721Z,78.90
2019-04-23T23:02:08.914Z,78.60
2019-04-23T23:05:01.855Z,79.00
2019-04-23T23:07:48.945Z,78.70
2019-04-23T23:10:28.124Z,79.30
2019-04-23T23:13:13.757Z,78.70
2019-04-23T23:16:02.014Z,79.10
2019-04-23T23:18:45.380Z,78.90
2019-04-23T23:21:29.165Z,79.20
2019-04-23T23:30:02.797Z,79.30
2019-04-23T23:32:40.174Z,79.10
2019-04-23T23:38:15.926Z,79.30
2019-04-23T23:44:08.140Z,79.60
2019-04-23T23:46:37.466Z,80.10
2019-04-23T23:52:16.161Z,79.90
2019-04-23T23:54:59.389Z,80.60
2019-04-23T23:57:42.284Z,80.00
